TISTTNCM

Guest
Details From TIST - St Thomas - Cyril E King
To TNCM - St Maarten - Princess Juliana Intl
Flight Number -
Tags generated
Created
Modified
Stats Distance 108 nm / 200 km
Max Altitude 0 ft / 0 m
Waypoints 2
Social Downloads 11
Likes 0
Share

Download

Looking for another format? Having issues loading an existing format? Contact us
Advertisement - Login to hide

Notes

Basic altitude profile: - Ascent Rate: 2000ft/min - Ascent Speed: 250kts - Cruise Altitude: 300ft - Cruise Speed: 420kts - Descent Rate: 1500ft/min - Descent Speed: 250kts Options: - Use NATs: yes - Use PACOTS: yes - Use low airways: no - Use high airways: no

Route

TIST TNCM

ID Type Via Altitude (ft/m) Position (lat/lon) Dist (leg/tot) Name
O TIST APT - 0 / 0 18.33730 / -64.97334 - / 0 nm St Thomas - Cyril E King
O TNCM APT - 0 / 0 18.04089 / -63.10897 107 / 107 nm St Maarten - Princess Juliana Intl

Altitude Profile

Advertisement - Login to hide

TIST

Details ICAO TIST (STT)
Name St Thomas - Cyril E King
Region USA (U.S. Virgin Islands)
Timezone Unknown
Stats Elevation 22 ft / 7 m (AMSL)
Location 18.337300° -64.973300°
Runways 1
Magnetic Variation 13.752° W

METAR

TIST 051453Z 06012G20KT 10SM FEW033 29/20 A3003

Decode

TAF

TAF TIST 051125Z 0512/0612 09007KT P6SM SCT030 FM051400 09012KT P6SM FEW025 SCT040 FM052200 07007KT P6SM FEW025

Decode

Departure Runways

ID Width Length Bearing (true/mag) Surface Threshold Overrun Markings Lighting
10 151 ft / 46 m 6,992 ft / 2,131 m 87.44° / 101.19° ASPHALT 0 ft / 0 m 200 ft / 61 m PREC-APP EDGE THRESHOLD REIL-OMNI
28 151 ft / 46 m 6,992 ft / 2,131 m 267.44° / 281.20° ASPHALT 2,300 ft / 701 m 200 ft / 61 m APP EDGE THRESHOLD

TNCM

Details ICAO TNCM (SXM)
Name Princess Juliana Intl
Region Caribbean Netherlands, Aruba, Curaçao, Sint Maarten
Timezone Unknown
Stats Elevation 14 ft / 4 m (AMSL)
Location 18.040900° -63.108900°
Runways 1
Magnetic Variation 14.406° W

METAR

TNCM 051500Z 08008KT 040V120 9999 FEW016 29/21 Q1018 NOSIG

Decode

TAF

TAF TNCM 051125Z 0512/0612 07005KT P6SM VCSH SCT018 FM051400 08012KT P6SM VCSH SCT018

Decode

Destination Runways

ID Width Length Bearing (true/mag) Surface Threshold Overrun Markings Lighting
10 148 ft / 45 m 7,553 ft / 2,302 m 81.44° / 95.85° ASPHALT 331 ft / 101 m 164 ft / 50 m PREC-APP EDGE THRESHOLD REIL-OMNI
28 148 ft / 45 m 7,553 ft / 2,302 m 261.45° / 275.85° ASPHALT 0 ft / 0 m 200 ft / 61 m APP EDGE THRESHOLD

Popular Alternatives